Time;durP1;ratioP1;P1;durP2;ratioP2;P2;SDS_P1;SDS_P2;PMS_P1;PMS_P2;Temp;Humidity;BMP_temperature;BMP_pressure;BME280_temperature;BME280_humidity;BME280_pressure;Samples;Min_cycle;Max_cycle;Signal;HPM_P1;HPM_P2
2022/02/22 00:01:23;;;;;;;13.30;5.65;;;;;;;;;;5018950;28;20356;-87
2022/02/22 00:03:49;;;;;;;12.85;5.65;;;;;;;;;;5017663;28;20018;-87
2022/02/22 00:06:15;;;;;;;11.18;5.75;;;;;;;;;;5018824;28;20026;-86
2022/02/22 00:08:41;;;;;;;18.60;6.75;;;;;;;;;;5017543;28;20049;-87
2022/02/22 00:11:07;;;;;;;16.58;6.20;;;;;;;;;;5017635;28;20409;-86
2022/02/22 00:13:33;;;;;;;20.92;7.22;;;;;;;;;;5018545;28;20025;-87
2022/02/22 00:16:00;;;;;;;14.23;6.65;;;;;;;;;;5018671;28;20038;-86
2022/02/22 00:18:27;;;;;;;9.98;5.78;;;;;;;;;;5018596;28;20409;-86
2022/02/22 00:20:53;;;;;;;24.50;7.10;;;;;;;;;;5018429;28;20436;-87
2022/02/22 00:23:20;;;;;;;27.95;8.25;;;;;;;;;;5018296;28;20026;-87
2022/02/22 00:25:47;;;;;;;26.48;8.55;;;;;;;;;;5018554;28;20030;-87
2022/02/22 00:28:13;;;;;;;20.20;7.82;;;;;;;;;;5017645;28;20354;-87
2022/02/22 00:30:40;;;;;;;18.10;7.10;;;;;;;;;;5018592;28;20029;-87
2022/02/22 00:33:06;;;;;;;32.67;10.48;;;;;;;;;;5018208;28;20018;-87
2022/02/22 00:35:32;;;;;;;25.73;8.32;;;;;;;;;;5018419;28;20029;-87
2022/02/22 00:37:58;;;;;;;20.50;7.25;;;;;;;;;;5018211;28;20076;-86
2022/02/22 00:40:24;;;;;;;16.77;6.57;;;;;;;;;;5018250;28;20029;-87
2022/02/22 00:42:50;;;;;;;11.00;5.13;;;;;;;;;;5018122;28;20026;-87
2022/02/22 00:45:16;;;;;;;14.30;5.82;;;;;;;;;;5017565;28;20079;-87
2022/02/22 00:47:42;;;;;;;14.55;7.00;;;;;;;;;;5018397;28;20121;-87
2022/02/22 00:50:08;;;;;;;14.50;5.97;;;;;;;;;;5018005;28;20025;-87
2022/02/22 00:52:34;;;;;;;13.02;5.63;;;;;;;;;;5018161;28;20072;-87
2022/02/22 00:55:01;;;;;;;11.70;5.18;;;;;;;;;;5017330;28;20026;-88
2022/02/22 00:57:27;;;;;;;10.32;5.82;;;;;;;;;;5018239;28;20315;-87
2022/02/22 00:59:53;;;;;;;10.63;5.20;;;;;;;;;;5017624;28;20014;-87
2022/02/22 01:02:19;;;;;;;10.77;5.60;;;;;;;;;;5016820;28;20297;-87
2022/02/22 01:04:45;;;;;;;8.40;5.00;;;;;;;;;;5017548;28;20026;-88
2022/02/22 01:07:16;;;;;;;9.93;5.55;;;;;;;;;;5017645;28;20022;-86
2022/02/22 01:09:43;;;;;;;8.35;5.22;;;;;;;;;;5016797;28;20057;-87
2022/02/22 01:12:09;;;;;;;9.15;5.57;;;;;;;;;;5017865;28;20032;-86
2022/02/22 01:14:35;;;;;;;7.93;5.13;;;;;;;;;;5016665;28;20060;-86
2022/02/22 01:17:01;;;;;;;9.65;5.38;;;;;;;;;;5017768;28;20026;-87
2022/02/22 01:19:27;;;;;;;9.60;5.22;;;;;;;;;;5017709;28;20081;-86
2022/02/22 01:21:53;;;;;;;12.85;6.07;;;;;;;;;;5017867;28;20026;-87
2022/02/22 01:24:19;;;;;;;11.13;5.38;;;;;;;;;;5017764;28;20026;-87
2022/02/22 01:26:45;;;;;;;14.00;6.18;;;;;;;;;;5017670;28;20026;-86
2022/02/22 01:29:11;;;;;;;16.63;6.40;;;;;;;;;;5017654;28;20026;-87
2022/02/22 01:31:37;;;;;;;15.07;6.43;;;;;;;;;;5017575;28;20026;-86
2022/02/22 01:34:03;;;;;;;12.90;6.70;;;;;;;;;;5017595;28;20030;-86
2022/02/22 01:36:29;;;;;;;13.20;6.53;;;;;;;;;;5017570;28;20033;-87
2022/02/22 01:38:56;;;;;;;11.52;5.70;;;;;;;;;;5017585;28;20030;-86
2022/02/22 01:41:22;;;;;;;9.32;5.43;;;;;;;;;;5016621;28;20046;-87
2022/02/22 01:43:49;;;;;;;9.43;6.32;;;;;;;;;;5016391;28;20022;-88
2022/02/22 01:46:15;;;;;;;12.18;6.30;;;;;;;;;;5017736;28;20041;-86
2022/02/22 01:48:42;;;;;;;10.13;5.85;;;;;;;;;;5016825;28;20030;-87
2022/02/22 01:51:08;;;;;;;11.85;6.32;;;;;;;;;;5016445;28;20408;-87
2022/02/22 01:53:34;;;;;;;8.65;5.70;;;;;;;;;;5017415;28;20033;-87
2022/02/22 01:56:01;;;;;;;14.40;7.10;;;;;;;;;;5016569;28;20022;-87
2022/02/22 01:58:30;;;;;;;12.55;6.88;;;;;;;;;;5020975;28;20064;-88
2022/02/22 02:00:56;;;;;;;12.82;6.95;;;;;;;;;;5020086;28;20075;-87
2022/02/22 02:03:23;;;;;;;14.95;7.32;;;;;;;;;;5019893;28;20029;-87
2022/02/22 02:05:49;;;;;;;10.80;6.88;;;;;;;;;;5021119;28;20014;-86
2022/02/22 02:08:15;;;;;;;13.82;7.40;;;;;;;;;;5020164;28;20172;-87
2022/02/22 02:10:41;;;;;;;13.00;7.25;;;;;;;;;;5020697;28;20038;-87
2022/02/22 02:13:07;;;;;;;14.10;8.10;;;;;;;;;;5020859;28;20026;-87
2022/02/22 02:15:33;;;;;;;13.15;7.43;;;;;;;;;;5020850;28;20029;-87
2022/02/22 02:17:59;;;;;;;14.15;7.05;;;;;;;;;;5020935;28;20022;-87
2022/02/22 02:20:25;;;;;;;14.82;8.52;;;;;;;;;;5020565;28;20026;-88
2022/02/22 02:22:51;;;;;;;11.23;6.88;;;;;;;;;;5020824;28;20026;-87
2022/02/22 02:25:18;;;;;;;14.63;7.72;;;;;;;;;;5020889;28;20025;-88
2022/02/22 02:27:44;;;;;;;15.13;7.55;;;;;;;;;;5020667;28;20032;-88
2022/02/22 02:30:11;;;;;;;13.50;7.38;;;;;;;;;;5020480;28;20060;-88
2022/02/22 02:32:37;;;;;;;16.10;8.40;;;;;;;;;;5020620;28;20036;-88
2022/02/22 02:35:04;;;;;;;12.05;7.63;;;;;;;;;;5020599;28;20029;-88
2022/02/22 02:37:30;;;;;;;15.02;8.65;;;;;;;;;;5019560;28;20062;-88
2022/02/22 02:39:56;;;;;;;14.13;8.13;;;;;;;;;;5019505;28;20022;-87
2022/02/22 02:42:22;;;;;;;13.20;7.75;;;;;;;;;;5020052;28;20466;-87
2022/02/22 02:44:49;;;;;;;12.70;6.97;;;;;;;;;;5020289;28;20088;-88
2022/02/22 02:47:16;;;;;;;11.80;6.75;;;;;;;;;;5020448;28;20053;-87
2022/02/22 02:49:43;;;;;;;11.73;6.32;;;;;;;;;;5019385;28;20474;-88
2022/02/22 02:52:09;;;;;;;11.80;5.97;;;;;;;;;;5020234;28;20072;-88
2022/02/22 02:54:37;;;;;;;7.85;5.05;;;;;;;;;;5020154;28;20432;-88
2022/02/22 02:57:03;;;;;;;7.97;4.97;;;;;;;;;;5019124;28;20112;-87
2022/02/22 02:59:30;;;;;;;6.63;4.38;;;;;;;;;;5019747;28;20037;-87
2022/02/22 03:01:56;;;;;;;7.85;4.20;;;;;;;;;;5019887;28;20018;-88
2022/02/22 03:04:22;;;;;;;6.65;3.90;;;;;;;;;;5020041;28;20029;-88
2022/02/22 03:06:48;;;;;;;12.82;6.60;;;;;;;;;;5020042;28;20056;-86
2022/02/22 03:09:14;;;;;;;10.30;6.03;;;;;;;;;;5019459;28;20129;-88
2022/02/22 03:11:41;;;;;;;5.60;4.28;;;;;;;;;;5019076;28;20129;-88
2022/02/22 03:14:07;;;;;;;4.85;3.90;;;;;;;;;;5019657;28;20040;-88
2022/02/22 03:16:33;;;;;;;6.32;3.58;;;;;;;;;;5019859;28;20050;-88
2022/02/22 03:19:02;;;;;;;7.57;3.70;;;;;;;;;;5019816;28;20069;-87
2022/02/22 03:21:29;;;;;;;5.53;3.53;;;;;;;;;;5019727;28;20053;-88
2022/02/22 03:23:55;;;;;;;9.85;4.35;;;;;;;;;;5019712;28;20024;-88
2022/02/22 03:26:21;;;;;;;6.38;3.30;;;;;;;;;;5018746;28;20029;-90
2022/02/22 03:28:47;;;;;;;6.53;3.70;;;;;;;;;;5019459;28;20018;-88
2022/02/22 03:31:13;;;;;;;6.07;3.60;;;;;;;;;;5019255;28;20117;-88
2022/02/22 03:33:40;;;;;;;6.93;3.60;;;;;;;;;;5018326;28;20022;-89
2022/02/22 03:36:06;;;;;;;5.60;3.65;;;;;;;;;;5019260;28;20121;-88
2022/02/22 03:38:32;;;;;;;7.22;3.90;;;;;;;;;;5019157;28;20029;-88
2022/02/22 03:41:00;;;;;;;7.80;3.55;;;;;;;;;;5018981;28;20022;-88
2022/02/22 03:43:26;;;;;;;12.95;5.82;;;;;;;;;;5018391;28;20029;-89
2022/02/22 03:45:52;;;;;;;6.95;4.28;;;;;;;;;;5019307;28;20030;-88
2022/02/22 03:48:19;;;;;;;6.47;4.43;;;;;;;;;;5019072;28;20064;-88
2022/02/22 03:50:45;;;;;;;8.32;4.50;;;;;;;;;;5018919;28;20052;-88
2022/02/22 03:53:11;;;;;;;9.35;6.22;;;;;;;;;;5019087;28;20030;-89
2022/02/22 03:55:37;;;;;;;11.95;7.65;;;;;;;;;;5018019;28;20121;-89
2022/02/22 03:58:03;;;;;;;9.85;5.88;;;;;;;;;;5018201;28;20034;-88
2022/02/22 04:00:30;;;;;;;13.20;7.82;;;;;;;;;;5018029;28;20053;-88
2022/02/22 04:02:56;;;;;;;13.88;9.63;;;;;;;;;;5019072;28;20021;-88
2022/02/22 04:05:22;;;;;;;10.50;5.63;;;;;;;;;;5019069;28;20451;-88
2022/02/22 04:07:49;;;;;;;10.95;5.22;;;;;;;;;;5017856;28;20026;-88
2022/02/22 04:10:16;;;;;;;13.70;8.45;;;;;;;;;;5018337;28;20420;-89
2022/02/22 04:12:42;;;;;;;8.55;5.07;;;;;;;;;;5018600;28;20030;-89
2022/02/22 04:15:09;;;;;;;9.93;5.40;;;;;;;;;;5018533;28;20021;-88
2022/02/22 04:17:35;;;;;;;14.00;8.77;;;;;;;;;;5018806;28;20017;-88
2022/02/22 04:20:01;;;;;;;13.23;6.38;;;;;;;;;;5017880;28;20022;-88
2022/02/22 04:22:28;;;;;;;8.18;4.57;;;;;;;;;;5018711;28;20026;-88
2022/02/22 04:24:54;;;;;;;7.43;4.38;;;;;;;;;;5018720;28;20018;-89
2022/02/22 04:27:20;;;;;;;8.35;5.32;;;;;;;;;;5018487;28;20108;-89
2022/02/22 04:29:46;;;;;;;7.82;5.38;;;;;;;;;;5017705;28;20099;-88
2022/02/22 04:32:12;;;;;;;8.35;4.50;;;;;;;;;;5018429;28;20030;-88
2022/02/22 04:34:38;;;;;;;9.77;5.13;;;;;;;;;;5018479;28;20032;-89
2022/02/22 04:37:04;;;;;;;12.80;6.28;;;;;;;;;;5018569;28;20103;-89
2022/02/22 04:39:31;;;;;;;15.85;6.68;;;;;;;;;;5018098;28;20030;-88
2022/02/22 04:41:57;;;;;;;20.23;8.35;;;;;;;;;;5018345;28;20022;-89
2022/02/22 04:44:23;;;;;;;21.98;9.80;;;;;;;;;;5018019;28;20022;-88
2022/02/22 04:46:50;;;;;;;14.95;8.38;;;;;;;;;;5018494;28;20018;-89
2022/02/22 04:49:16;;;;;;;15.40;8.10;;;;;;;;;;5018055;28;20057;-88
2022/02/22 04:51:43;;;;;;;14.13;6.97;;;;;;;;;;5017393;28;20040;-89
2022/02/22 04:54:10;;;;;;;15.25;6.07;;;;;;;;;;5018132;28;20022;-89
2022/02/22 04:56:36;;;;;;;12.65;6.32;;;;;;;;;;5018101;28;20034;-88
2022/02/22 04:59:02;;;;;;;10.55;6.30;;;;;;;;;;5016867;28;20021;-87
2022/02/22 05:01:28;;;;;;;8.02;5.38;;;;;;;;;;5017863;28;20021;-88
2022/02/22 05:03:55;;;;;;;11.13;6.15;;;;;;;;;;5017081;28;20030;-89
2022/02/22 05:06:21;;;;;;;13.23;6.22;;;;;;;;;;5018087;28;20092;-88
2022/02/22 05:08:47;;;;;;;9.93;5.20;;;;;;;;;;5017698;28;20050;-89
2022/02/22 05:11:13;;;;;;;9.52;5.07;;;;;;;;;;5017698;28;20032;-89
2022/02/22 05:13:39;;;;;;;10.02;5.70;;;;;;;;;;5017695;28;20037;-88
2022/02/22 05:16:06;;;;;;;8.93;5.07;;;;;;;;;;5017767;28;20033;-89
2022/02/22 05:18:32;;;;;;;11.40;6.30;;;;;;;;;;5016768;28;20104;-88
2022/02/22 05:20:58;;;;;;;11.25;5.80;;;;;;;;;;5017723;28;20022;-87
2022/02/22 05:23:26;;;;;;;9.98;6.00;;;;;;;;;;5017908;28;20018;-87
2022/02/22 05:25:52;;;;;;;9.68;4.65;;;;;;;;;;5018034;28;20018;-87
2022/02/22 05:28:22;;;;;;;9.40;4.20;;;;;;;;;;5017848;28;20126;-87
2022/02/22 05:30:49;;;;;;;8.23;4.63;;;;;;;;;;5018141;28;20117;-87
2022/02/22 05:33:15;;;;;;;6.93;4.10;;;;;;;;;;5021574;28;20400;-88
2022/02/22 05:35:43;;;;;;;7.68;4.00;;;;;;;;;;5021761;28;20076;-87
2022/02/22 05:38:09;;;;;;;8.65;4.50;;;;;;;;;;5021464;28;20030;-87
2022/02/22 05:40:35;;;;;;;18.13;9.60;;;;;;;;;;5021585;28;20022;-87
2022/02/22 05:43:01;;;;;;;21.52;13.35;;;;;;;;;;5020651;28;20057;-88
2022/02/22 05:45:27;;;;;;;16.83;10.50;;;;;;;;;;5021253;28;20018;-87
2022/02/22 05:47:53;;;;;;;10.80;6.13;;;;;;;;;;5020773;28;20152;-88
2022/02/22 05:50:19;;;;;;;20.50;9.38;;;;;;;;;;5021562;28;20041;-88
2022/02/22 05:52:45;;;;;;;96.88;39.97;;;;;;;;;;5020417;28;20321;-88
2022/02/22 05:55:12;;;;;;;145.27;57.65;;;;;;;;;;5021268;28;20030;-88
2022/02/22 05:57:38;;;;;;;40.85;24.55;;;;;;;;;;5021155;28;20072;-89
2022/02/22 06:00:05;;;;;;;9.02;4.30;;;;;;;;;;5021239;28;20045;-89
2022/02/22 06:02:31;;;;;;;8.35;3.83;;;;;;;;;;5021382;28;20022;-89
2022/02/22 06:04:58;;;;;;;6.65;3.40;;;;;;;;;;5021190;28;20018;-89
2022/02/22 06:07:24;;;;;;;7.00;2.92;;;;;;;;;;5021058;28;20088;-88
2022/02/22 06:09:50;;;;;;;8.23;3.85;;;;;;;;;;5021026;28;20153;-89
2022/02/22 06:12:16;;;;;;;7.40;3.60;;;;;;;;;;5021274;28;20025;-89
2022/02/22 06:14:42;;;;;;;4.80;3.47;;;;;;;;;;5021031;28;20032;-89
2022/02/22 06:17:08;;;;;;;8.07;3.38;;;;;;;;;;5021023;28;20026;-88
2022/02/22 06:19:34;;;;;;;6.82;3.42;;;;;;;;;;5020889;28;20026;-89
2022/02/22 06:22:00;;;;;;;8.48;3.95;;;;;;;;;;5020737;28;20033;-90
2022/02/22 06:24:26;;;;;;;8.25;3.85;;;;;;;;;;5020565;28;20405;-89
2022/02/22 06:26:52;;;;;;;6.45;3.55;;;;;;;;;;5020709;28;20022;-89
2022/02/22 06:29:18;;;;;;;7.47;4.38;;;;;;;;;;5019792;28;20044;-88
2022/02/22 06:31:44;;;;;;;8.13;3.60;;;;;;;;;;5019599;28;20033;-88
2022/02/22 06:34:10;;;;;;;7.88;4.10;;;;;;;;;;5020546;28;20026;-89
2022/02/22 06:36:36;;;;;;;5.20;3.00;;;;;;;;;;5022194;28;20032;-88
2022/02/22 06:39:02;;;;;;;7.75;3.80;;;;;;;;;;5021941;28;20077;-89
2022/02/22 06:41:29;;;;;;;5.70;3.20;;;;;;;;;;5019274;28;20050;-88
2022/02/22 06:43:55;;;;;;;5.45;3.20;;;;;;;;;;5019008;28;20026;-89
2022/02/22 06:46:21;;;;;;;7.97;5.35;;;;;;;;;;5020189;28;20088;-90
2022/02/22 06:48:47;;;;;;;8.60;4.78;;;;;;;;;;5019465;28;20033;-89
2022/02/22 06:51:13;;;;;;;7.57;3.58;;;;;;;;;;5020460;28;20030;-89
2022/02/22 06:53:39;;;;;;;9.40;4.75;;;;;;;;;;5020246;28;20027;-89
2022/02/22 06:56:05;;;;;;;9.75;4.30;;;;;;;;;;5020451;28;20056;-89
2022/02/22 06:58:31;;;;;;;7.80;4.30;;;;;;;;;;5019768;28;20029;-88
2022/02/22 07:00:58;;;;;;;8.63;5.07;;;;;;;;;;5019322;28;20076;-88
2022/02/22 07:03:25;;;;;;;6.93;5.30;;;;;;;;;;5020272;28;20092;-88
2022/02/22 07:05:51;;;;;;;13.57;5.60;;;;;;;;;;5019637;28;20022;-88
2022/02/22 07:08:18;;;;;;;7.13;4.07;;;;;;;;;;5019908;28;20052;-89
2022/02/22 07:10:45;;;;;;;12.00;7.90;;;;;;;;;;5020072;28;20389;-88
2022/02/22 07:13:11;;;;;;;11.23;6.68;;;;;;;;;;5019140;28;20100;-88
2022/02/22 07:15:37;;;;;;;9.10;6.50;;;;;;;;;;5019657;28;20328;-88
2022/02/22 07:18:05;;;;;;;8.85;6.00;;;;;;;;;;5018588;28;20373;-88
2022/02/22 07:20:31;;;;;;;8.23;3.78;;;;;;;;;;5019566;28;20030;-88
2022/02/22 07:22:57;;;;;;;11.10;6.25;;;;;;;;;;5019717;28;20030;-88
2022/02/22 07:25:24;;;;;;;9.38;5.53;;;;;;;;;;5019550;28;20022;-88
2022/02/22 07:27:51;;;;;;;10.45;5.28;;;;;;;;;;5018848;28;20034;-88
2022/02/22 07:30:18;;;;;;;7.95;3.85;;;;;;;;;;5019610;28;20030;-88
2022/02/22 07:32:45;;;;;;;8.13;4.38;;;;;;;;;;5019489;28;20025;-89
2022/02/22 07:35:12;;;;;;;9.38;4.47;;;;;;;;;;5019313;28;20108;-88
2022/02/22 07:37:39;;;;;;;9.93;5.03;;;;;;;;;;5021501;28;20037;-88
2022/02/22 07:40:06;;;;;;;9.40;5.50;;;;;;;;;;5019696;28;20038;-87
2022/02/22 07:42:32;;;;;;;15.85;7.90;;;;;;;;;;5019525;28;20025;-86
2022/02/22 07:44:58;;;;;;;11.40;6.57;;;;;;;;;;5019064;28;20026;-88
2022/02/22 07:47:24;;;;;;;13.38;7.00;;;;;;;;;;5019039;28;20050;-88
2022/02/22 07:49:50;;;;;;;14.95;5.35;;;;;;;;;;5019115;28;20033;-87
2022/02/22 07:52:16;;;;;;;9.82;4.50;;;;;;;;;;5018243;28;20293;-88
2022/02/22 07:54:42;;;;;;;9.30;5.63;;;;;;;;;;5019045;28;20030;-87
2022/02/22 07:57:08;;;;;;;11.68;5.10;;;;;;;;;;5018998;28;20046;-87
2022/02/22 07:59:34;;;;;;;9.73;5.43;;;;;;;;;;5018294;28;20055;-87
2022/02/22 08:02:01;;;;;;;13.05;5.47;;;;;;;;;;5018943;28;20072;-88
2022/02/22 08:04:27;;;;;;;11.38;5.30;;;;;;;;;;5033415;28;20057;-86
2022/02/22 08:06:55;;;;;;;9.20;4.82;;;;;;;;;;5029704;28;20017;-87
2022/02/22 08:09:21;;;;;;;9.20;4.85;;;;;;;;;;5022889;28;20061;-87
2022/02/22 08:11:48;;;;;;;9.55;4.88;;;;;;;;;;5025423;28;20424;-87
2022/02/22 08:14:14;;;;;;;10.07;4.25;;;;;;;;;;5019970;28;20030;-88
2022/02/22 08:16:40;;;;;;;7.45;4.18;;;;;;;;;;5023126;28;20026;-88
2022/02/22 08:19:07;;;;;;;5.90;3.72;;;;;;;;;;5038679;28;20030;-87
2022/02/22 08:21:33;;;;;;;8.52;4.47;;;;;;;;;;5036487;28;20029;-88
2022/02/22 08:23:59;;;;;;;8.85;4.28;;;;;;;;;;5034273;28;20068;-87
2022/02/22 08:26:25;;;;;;;7.63;4.20;;;;;;;;;;5038431;28;20029;-87
2022/02/22 08:28:51;;;;;;;7.63;3.97;;;;;;;;;;5038548;28;20081;-87
2022/02/22 08:31:17;;;;;;;7.15;3.80;;;;;;;;;;5024797;28;20057;-88
2022/02/22 08:33:44;;;;;;;9.13;4.20;;;;;;;;;;5026947;28;20079;-87
2022/02/22 08:36:11;;;;;;;8.93;4.18;;;;;;;;;;5027046;28;20036;-89
2022/02/22 08:38:37;;;;;;;6.65;3.58;;;;;;;;;;5017279;28;20068;-89
2022/02/22 08:41:03;;;;;;;9.10;3.90;;;;;;;;;;5022187;28;20399;-88
2022/02/22 08:43:29;;;;;;;9.80;4.95;;;;;;;;;;5035728;28;20025;-93
2022/02/22 08:45:55;;;;;;;11.60;4.38;;;;;;;;;;5036995;28;20025;-93
2022/02/22 08:48:21;;;;;;;6.18;3.20;;;;;;;;;;5036526;28;20398;-93
2022/02/22 08:50:47;;;;;;;8.68;3.75;;;;;;;;;;5037388;28;20450;-94
2022/02/22 08:53:14;;;;;;;9.05;4.68;;;;;;;;;;5038074;28;20029;-92
2022/02/22 08:55:40;;;;;;;8.70;4.07;;;;;;;;;;5037951;28;20089;-94
2022/02/22 08:58:06;;;;;;;9.20;4.15;;;;;;;;;;5037757;28;20108;-94
2022/02/22 09:00:32;;;;;;;4.75;3.13;;;;;;;;;;5037593;28;20022;-95
2022/02/22 09:03:00;;;;;;;7.18;3.42;;;;;;;;;;5027968;28;20013;-95
2022/02/22 09:05:27;;;;;;;5.22;2.80;;;;;;;;;;5034764;28;20104;-94
2022/02/22 09:07:53;;;;;;;14.90;6.25;;;;;;;;;;5037919;28;20026;-94
2022/02/22 09:10:20;;;;;;;9.27;3.50;;;;;;;;;;5037747;28;20448;-90
2022/02/22 09:12:47;;;;;;;7.32;4.32;;;;;;;;;;5029147;28;20025;-94
2022/02/22 09:15:14;;;;;;;5.15;3.10;;;;;;;;;;5017680;28;20108;-94
2022/02/22 09:17:42;;;;;;;9.20;3.50;;;;;;;;;;5022557;28;20048;-92
2022/02/22 09:20:09;;;;;;;10.88;5.40;;;;;;;;;;5021838;28;20075;-92
2022/02/22 09:22:36;;;;;;;6.00;3.40;;;;;;;;;;5037166;28;20511;-93
2022/02/22 09:25:03;;;;;;;5.10;3.45;;;;;;;;;;5037652;28;20033;-93
2022/02/22 09:27:29;;;;;;;5.60;3.47;;;;;;;;;;5037581;28;20026;-91
2022/02/22 09:29:55;;;;;;;4.65;2.67;;;;;;;;;;5026695;28;20030;-91
2022/02/22 09:32:23;;;;;;;5.68;2.40;;;;;;;;;;5017892;28;20022;-89
2022/02/22 09:34:49;;;;;;;4.75;2.40;;;;;;;;;;5017942;28;20030;-90
2022/02/22 09:37:15;;;;;;;3.08;2.22;;;;;;;;;;5016811;28;20037;-90
2022/02/22 09:39:41;;;;;;;5.28;2.67;;;;;;;;;;5017233;28;20434;-90
2022/02/22 09:42:08;;;;;;;4.60;2.40;;;;;;;;;;5017362;28;20531;-89
2022/02/22 09:44:35;;;;;;;13.40;6.32;;;;;;;;;;5017549;28;20025;-91
2022/02/22 09:47:01;;;;;;;15.55;8.90;;;;;;;;;;5017463;28;20325;-91
2022/02/22 09:49:28;;;;;;;10.38;3.83;;;;;;;;;;5017589;28;20034;-90
2022/02/22 09:51:54;;;;;;;6.53;3.58;;;;;;;;;;5017590;28;20056;-91
2022/02/22 09:54:21;;;;;;;15.20;7.88;;;;;;;;;;5017541;28;20072;-90
2022/02/22 09:56:47;;;;;;;23.17;11.35;;;;;;;;;;5016806;28;20040;-90
2022/02/22 09:59:14;;;;;;;15.20;8.55;;;;;;;;;;5017157;28;20022;-91
2022/02/22 10:01:40;;;;;;;12.60;7.07;;;;;;;;;;5017384;28;20061;-90
2022/02/22 10:04:07;;;;;;;6.82;4.15;;;;;;;;;;5016602;28;20037;-93
2022/02/22 10:06:33;;;;;;;5.03;2.63;;;;;;;;;;5017679;28;20034;-91
2022/02/22 10:08:59;;;;;;;5.30;3.20;;;;;;;;;;5017454;28;20085;-91
2022/02/22 10:11:25;;;;;;;4.68;3.25;;;;;;;;;;5016500;28;20026;-90
2022/02/22 10:13:51;;;;;;;12.05;6.20;;;;;;;;;;5017313;28;20412;-91
2022/02/22 10:16:17;;;;;;;5.68;3.45;;;;;;;;;;5017177;28;20057;-90
2022/02/22 10:18:46;;;;;;;7.93;5.43;;;;;;;;;;5021409;28;20121;-90
2022/02/22 10:21:12;;;;;;;12.38;6.07;;;;;;;;;;5038288;28;20424;-88
2022/02/22 10:23:39;;;;;;;5.40;3.08;;;;;;;;;;5040168;28;20391;-92
2022/02/22 10:26:05;;;;;;;2.70;1.95;;;;;;;;;;5040631;28;20026;-91
2022/02/22 10:28:31;;;;;;;4.28;3.00;;;;;;;;;;5039621;28;20032;-91
2022/02/22 10:30:57;;;;;;;4.80;2.70;;;;;;;;;;5039695;28;20033;-90
2022/02/22 10:33:24;;;;;;;2.60;2.03;;;;;;;;;;5040479;28;20029;-91
2022/02/22 10:35:56;;;;;;;7.97;3.10;;;;;;;;;;5040409;28;20029;-91
2022/02/22 10:38:28;;;;;;;5.28;2.55;;;;;;;;;;5039375;28;20037;-93
2022/02/22 10:40:56;;;;;;;6.07;2.53;;;;;;;;;;5040207;28;20029;-91
2022/02/22 10:43:27;;;;;;;4.07;1.80;;;;;;;;;;5039513;28;20076;-91
2022/02/22 10:45:54;;;;;;;3.67;1.63;;;;;;;;;;5040344;28;20364;-90
2022/02/22 10:48:26;;;;;;;3.53;2.00;;;;;;;;;;5040339;28;20052;-90
2022/02/22 10:50:53;;;;;;;2.22;1.70;;;;;;;;;;5040293;28;20141;-90
2022/02/22 10:53:19;;;;;;;2.47;1.50;;;;;;;;;;5033588;28;20042;-89
2022/02/22 10:55:46;;;;;;;4.95;1.75;;;;;;;;;;5039922;28;20025;-90
2022/02/22 10:58:13;;;;;;;3.67;1.95;;;;;;;;;;5039127;28;20038;-90
2022/02/22 11:00:39;;;;;;;4.72;2.60;;;;;;;;;;5039552;28;20025;-91
2022/02/22 11:03:05;;;;;;;3.65;1.98;;;;;;;;;;5039753;28;20108;-92
2022/02/22 11:05:31;;;;;;;6.18;2.83;;;;;;;;;;5039724;28;20022;-90
2022/02/22 11:07:57;;;;;;;3.95;2.45;;;;;;;;;;5039950;28;20041;-91
2022/02/22 11:10:28;;;;;;;5.35;2.70;;;;;;;;;;5039030;28;20080;-91
2022/02/22 11:12:59;;;;;;;4.47;2.88;;;;;;;;;;5039688;28;20036;-91
2022/02/22 11:15:39;;;;;;;6.03;1.98;;;;;;;;;;5038934;28;20381;-90
2022/02/22 11:18:16;;;;;;;7.20;2.45;;;;;;;;;;5039627;28;20022;-90
2022/02/22 11:20:43;;;;;;;6.78;3.65;;;;;;;;;;5038616;28;20025;-90
2022/02/22 11:23:12;;;;;;;18.65;6.03;;;;;;;;;;5039409;28;20026;-92
2022/02/22 11:25:38;;;;;;;62.65;15.02;;;;;;;;;;5039386;28;20036;-91
2022/02/22 11:28:05;;;;;;;112.72;31.00;;;;;;;;;;5038283;28;20034;-92
2022/02/22 11:30:32;;;;;;;44.90;17.85;;;;;;;;;;5038924;28;20048;-92
2022/02/22 11:33:08;;;;;;;28.55;14.38;;;;;;;;;;5039300;28;20041;-92
2022/02/22 11:35:53;;;;;;;36.85;16.88;;;;;;;;;;5039481;28;20021;-91
2022/02/22 11:38:19;;;;;;;33.13;16.67;;;;;;;;;;5038280;28;20085;-90
2022/02/22 11:40:49;;;;;;;62.08;27.67;;;;;;;;;;5038581;28;20045;-91
2022/02/22 11:43:16;;;;;;;36.72;16.92;;;;;;;;;;5039492;28;20052;-91
2022/02/22 11:45:43;;;;;;;9.02;5.15;;;;;;;;;;5027834;28;20063;-89
2022/02/22 11:48:39;;;;;;;20.55;10.10;;;;;;;;;;5019409;28;20057;-91
2022/02/22 11:51:12;;;;;;;19.05;9.32;;;;;;;;;;5020486;28;20038;-91
2022/02/22 11:53:38;;;;;;;12.25;5.80;;;;;;;;;;5037491;28;20079;-91
2022/02/22 11:56:05;;;;;;;16.70;8.95;;;;;;;;;;5037275;28;20048;-90
2022/02/22 11:58:33;;;;;;;10.18;4.90;;;;;;;;;;5036798;28;20133;-91
2022/02/22 12:01:06;;;;;;;8.98;5.03;;;;;;;;;;5037100;28;20144;-91
2022/02/22 12:03:46;;;;;;;4.05;2.17;;;;;;;;;;5036971;28;20029;-90
2022/02/22 12:06:12;;;;;;;5.82;2.28;;;;;;;;;;5046757;28;20025;-90
2022/02/22 12:08:41;;;;;;;4.90;2.10;;;;;;;;;;5056959;28;20069;-90
2022/02/22 12:11:14;;;;;;;12.38;3.35;;;;;;;;;;5056818;28;20076;-89
2022/02/22 12:13:42;;;;;;;3.20;2.50;;;;;;;;;;5056806;28;20430;-89
2022/02/22 12:16:15;;;;;;;4.70;1.92;;;;;;;;;;5056337;28;20485;-91
2022/02/22 12:18:45;;;;;;;5.53;2.58;;;;;;;;;;5056555;28;20331;-91
2022/02/22 12:21:11;;;;;;;4.97;2.53;;;;;;;;;;5056112;28;20033;-90
2022/02/22 12:23:39;;;;;;;14.02;2.45;;;;;;;;;;5056682;28;20336;-91
2022/02/22 12:26:10;;;;;;;5.30;2.90;;;;;;;;;;5056689;28;20081;-91
2022/02/22 12:29:08;;;;;;;6.83;4.83;;;;;;;;;;5018693;28;20420;-92
2022/02/22 12:35:06;;;;;;;5.57;2.65;;;;;;;;;;5018548;28;20084;-91
2022/02/22 12:37:45;;;;;;;4.80;3.10;;;;;;;;;;5017874;28;20022;-90
2022/02/22 12:40:12;;;;;;;3.63;2.30;;;;;;;;;;5017843;28;20367;-92
2022/02/22 12:42:38;;;;;;;8.35;1.98;;;;;;;;;;5018337;28;20081;-92
2022/02/22 12:45:14;;;;;;;7.45;2.33;;;;;;;;;;5031462;28;20049;-90
2022/02/22 12:47:40;;;;;;;4.28;2.38;;;;;;;;;;5038085;28;20029;-91
2022/02/22 12:50:06;;;;;;;7.97;2.33;;;;;;;;;;5037171;28;20423;-92
2022/02/22 12:52:33;;;;;;;4.43;1.80;;;;;;;;;;5037207;28;20176;-91
2022/02/22 12:55:06;;;;;;;4.45;1.90;;;;;;;;;;5037734;28;20028;-91
2022/02/22 12:57:32;;;;;;;4.72;1.75;;;;;;;;;;5036892;28;20030;-90
2022/02/22 13:00:04;;;;;;;3.22;1.70;;;;;;;;;;5037181;28;20049;-91
2022/02/22 13:02:30;;;;;;;2.63;1.80;;;;;;;;;;5037735;28;20403;-91
2022/02/22 13:04:56;;;;;;;6.50;2.05;;;;;;;;;;5037896;28;20032;-91
2022/02/22 13:07:23;;;;;;;6.93;2.10;;;;;;;;;;5037484;28;20060;-91
2022/02/22 13:09:50;;;;;;;5.88;2.15;;;;;;;;;;5037380;28;20061;-90
2022/02/22 13:12:20;;;;;;;8.20;1.70;;;;;;;;;;5037595;28;20026;-91
2022/02/22 13:14:47;;;;;;;2.33;1.38;;;;;;;;;;5037621;28;20025;-90
2022/02/22 13:17:15;;;;;;;7.82;1.60;;;;;;;;;;5037576;28;20475;-91
2022/02/22 13:19:42;;;;;;;5.13;1.83;;;;;;;;;;5037493;28;20022;-91
2022/02/22 13:22:10;;;;;;;8.23;1.67;;;;;;;;;;5037664;28;20017;-91
2022/02/22 13:24:39;;;;;;;8.85;1.95;;;;;;;;;;5037866;28;20365;-91
2022/02/22 13:27:06;;;;;;;4.50;1.38;;;;;;;;;;5037403;28;20575;-90
2022/02/22 13:29:32;;;;;;;9.70;2.38;;;;;;;;;;5037296;28;20079;-90
2022/02/22 13:32:09;;;;;;;6.93;1.80;;;;;;;;;;5037321;28;20021;-91
2022/02/22 13:34:42;;;;;;;6.13;1.70;;;;;;;;;;5037558;28;20072;-90
2022/02/22 13:37:09;;;;;;;6.53;2.10;;;;;;;;;;5037368;28;20034;-90
2022/02/22 13:39:35;;;;;;;6.22;2.00;;;;;;;;;;5037736;28;20036;-90
2022/02/22 13:42:02;;;;;;;6.88;2.00;;;;;;;;;;5037182;28;20412;-91
2022/02/22 13:44:36;;;;;;;4.20;1.55;;;;;;;;;;5037495;28;20053;-89
2022/02/22 13:47:03;;;;;;;4.15;1.55;;;;;;;;;;5037582;28;20025;-90
2022/02/22 13:49:29;;;;;;;6.05;1.77;;;;;;;;;;5037424;28;20414;-90
2022/02/22 13:51:58;;;;;;;6.32;1.85;;;;;;;;;;5038693;28;20080;-90
2022/02/22 13:54:30;;;;;;;5.95;2.00;;;;;;;;;;5041245;28;20034;-90
2022/02/22 13:56:58;;;;;;;5.38;2.17;;;;;;;;;;5041098;28;20029;-89
2022/02/22 13:59:36;;;;;;;5.68;1.52;;;;;;;;;;5041130;28;20040;-89
2022/02/22 14:02:03;;;;;;;9.25;1.73;;;;;;;;;;5041160;28;20140;-90
2022/02/22 14:04:33;;;;;;;10.90;1.67;;;;;;;;;;5040097;28;20032;-90
2022/02/22 14:06:59;;;;;;;5.50;1.45;;;;;;;;;;5040948;28;20446;-89
2022/02/22 14:09:25;;;;;;;5.43;1.58;;;;;;;;;;5039781;28;20064;-89
2022/02/22 14:11:51;;;;;;;5.07;1.55;;;;;;;;;;5041019;28;20324;-90
2022/02/22 14:14:18;;;;;;;5.72;1.42;;;;;;;;;;5040680;28;20116;-90
2022/02/22 14:16:44;;;;;;;4.85;1.50;;;;;;;;;;5040346;28;20113;-90
2022/02/22 14:19:10;;;;;;;8.68;1.48;;;;;;;;;;5040268;28;20033;-90
2022/02/22 14:21:37;;;;;;;6.55;1.45;;;;;;;;;;5040064;28;20030;-90
2022/02/22 14:24:04;;;;;;;5.45;1.30;;;;;;;;;;5040401;28;20108;-91
2022/02/22 14:26:30;;;;;;;5.20;1.20;;;;;;;;;;5040514;28;20026;-90
2022/02/22 14:28:56;;;;;;;6.03;1.23;;;;;;;;;;5040696;28;20026;-90
2022/02/22 14:31:22;;;;;;;5.07;1.20;;;;;;;;;;5040462;28;20404;-90
2022/02/22 14:33:48;;;;;;;5.00;1.48;;;;;;;;;;5040524;28;20029;-90
2022/02/22 14:36:15;;;;;;;7.95;1.42;;;;;;;;;;5040368;28;20321;-91
2022/02/22 14:38:41;;;;;;;4.68;1.70;;;;;;;;;;5040159;28;20040;-90
2022/02/22 14:41:07;;;;;;;5.80;1.45;;;;;;;;;;5040346;28;20426;-91